sensor_id;sensor_type;location;lat;lon;timestamp;pressure;altitude;pressure_sealevel;temperature;humidity
39823;BME280;25499;53.958;10.970;2022-10-22T05:15:21;100833.94;;;11.51;100.00
39823;BME280;25499;53.958;10.970;2022-10-22T05:17:46;100833.94;;;11.48;100.00
39823;BME280;25499;53.958;10.970;2022-10-22T05:20:11;100841.75;;;11.48;100.00
39823;BME280;25499;53.958;10.970;2022-10-22T05:22:37;100849.56;;;11.54;100.00
39823;BME280;25499;53.958;10.970;2022-10-22T05:25:02;100859.16;;;11.49;100.00
39823;BME280;25499;53.958;10.970;2022-10-22T05:27:27;100855.69;;;11.47;100.00
39823;BME280;25499;53.958;10.970;2022-10-22T05:29:53;100865.22;;;11.51;100.00
39823;BME280;25499;53.958;10.970;2022-10-22T05:32:18;100868.72;;;11.44;100.00
39823;BME280;25499;53.958;10.970;2022-10-22T05:34:43;100864.38;;;11.48;100.00
39823;BME280;25499;53.958;10.970;2022-10-22T05:37:09;100860.91;;;11.46;100.00
39823;BME280;25499;53.958;10.970;2022-10-22T05:39:34;100868.69;;;11.49;100.00
39823;BME280;25499;53.958;10.970;2022-10-22T05:42:02;100865.22;;;11.51;100.00
39823;BME280;25499;53.958;10.970;2022-10-22T05:44:27;100875.63;;;11.53;100.00
39823;BME280;25499;53.958;10.970;2022-10-22T05:46:52;100880.75;;;11.70;100.00
39823;BME280;25499;53.958;10.970;2022-10-22T05:49:18;100884.13;;;11.87;100.00
39823;BME280;25499;53.958;10.970;2022-10-22T05:51:43;100886.66;;;12.04;100.00
39823;BME280;25499;53.958;10.970;2022-10-22T05:54:21;100883.94;;;12.17;100.00
39823;BME280;25499;53.958;10.970;2022-10-22T05:56:46;100886.53;;;12.21;100.00
39823;BME280;25499;53.958;10.970;2022-10-22T05:59:12;100885.59;;;12.30;100.00
39823;BME280;25499;53.958;10.970;2022-10-22T06:01:38;100887.38;;;12.22;100.00
39823;BME280;25499;53.958;10.970;2022-10-22T06:04:06;100881.41;;;12.09;100.00
39823;BME280;25499;53.958;10.970;2022-10-22T06:06:51;100895.38;;;12.02;100.00
39823;BME280;25499;53.958;10.970;2022-10-22T06:09:30;100895.41;;;11.96;100.00
39823;BME280;25499;53.958;10.970;2022-10-22T06:11:57;100894.56;;;11.89;100.00
39823;BME280;25499;53.958;10.970;2022-10-22T06:14:23;100890.25;;;11.83;100.00
39823;BME280;25499;53.958;10.970;2022-10-22T06:16:49;100892.88;;;11.82;100.00
39823;BME280;25499;53.958;10.970;2022-10-22T06:19:17;100894.66;;;11.73;100.00
39823;BME280;25499;53.958;10.970;2022-10-22T06:21:43;100899.88;;;11.69;100.00
39823;BME280;25499;53.958;10.970;2022-10-22T06:24:09;100909.47;;;11.61;100.00
39823;BME280;25499;53.958;10.970;2022-10-22T06:26:35;100913.84;;;11.57;100.00
39823;BME280;25499;53.958;10.970;2022-10-22T06:29:00;100911.28;;;11.52;100.00
39823;BME280;25499;53.958;10.970;2022-10-22T06:31:26;100916.50;;;11.52;100.00
39823;BME280;25499;53.958;10.970;2022-10-22T06:33:52;100919.97;;;11.51;100.00
39823;BME280;25499;53.958;10.970;2022-10-22T06:36:20;100930.41;;;11.54;100.00
39823;BME280;25499;53.958;10.970;2022-10-22T06:38:45;100932.06;;;11.68;100.00
39823;BME280;25499;53.958;10.970;2022-10-22T06:41:15;100928.63;;;11.61;100.00
39823;BME280;25499;53.958;10.970;2022-10-22T06:43:44;100931.19;;;11.67;100.00
39823;BME280;25499;53.958;10.970;2022-10-22T06:46:12;100934.69;;;11.66;100.00
39823;BME280;25499;53.958;10.970;2022-10-22T06:48:38;100936.41;;;11.64;100.00
39823;BME280;25499;53.958;10.970;2022-10-22T06:51:08;100942.47;;;11.72;100.00
39823;BME280;25499;53.958;10.970;2022-10-22T06:53:34;100948.56;;;11.73;100.00
39823;BME280;25499;53.958;10.970;2022-10-22T06:56:12;100946.78;;;11.80;100.00
39823;BME280;25499;53.958;10.970;2022-10-22T06:58:38;100949.34;;;11.86;100.00
39823;BME280;25499;53.958;10.970;2022-10-22T07:01:09;100950.19;;;11.89;100.00
39823;BME280;25499;53.958;10.970;2022-10-22T07:03:36;100947.59;;;11.96;100.00
39823;BME280;25499;53.958;10.970;2022-10-22T07:06:04;100951.03;;;12.07;100.00
39823;BME280;25499;53.958;10.970;2022-10-22T07:08:30;100950.97;;;12.11;100.00
39823;BME280;25499;53.958;10.970;2022-10-22T07:10:56;100958.69;;;12.27;100.00
39823;BME280;25499;53.958;10.970;2022-10-22T07:13:23;100957.81;;;12.34;100.00
39823;BME280;25499;53.958;10.970;2022-10-22T07:15:52;100957.75;;;12.39;100.00
39823;BME280;25499;53.958;10.970;2022-10-22T07:18:19;100956.84;;;12.47;100.00
39823;BME280;25499;53.958;10.970;2022-10-22T07:20:46;100967.13;;;12.66;100.00
39823;BME280;25499;53.958;10.970;2022-10-22T07:23:11;100964.41;;;12.80;100.00
39823;BME280;25499;53.958;10.970;2022-10-22T07:25:36;100965.13;;;12.96;100.00
39823;BME280;25499;53.958;10.970;2022-10-22T07:28:01;100965.97;;;12.96;100.00
39823;BME280;25499;53.958;10.970;2022-10-22T07:30:27;100974.66;;;13.00;100.00
39823;BME280;25499;53.958;10.970;2022-10-22T07:32:52;100974.63;;;13.01;100.00
39823;BME280;25499;53.958;10.970;2022-10-22T07:35:17;100979.78;;;13.14;100.00
39823;BME280;25499;53.958;10.970;2022-10-22T07:37:43;100969.38;;;13.06;100.00
39823;BME280;25499;53.958;10.970;2022-10-22T07:40:08;100968.44;;;13.12;100.00
39823;BME280;25499;53.958;10.970;2022-10-22T07:42:34;100972.94;;;12.99;100.00
39823;BME280;25499;53.958;10.970;2022-10-22T07:44:59;100972.81;;;13.10;100.00
39823;BME280;25499;53.958;10.970;2022-10-22T07:47:24;100975.47;;;13.06;100.00
39823;BME280;25499;53.958;10.970;2022-10-22T07:49:50;100976.34;;;13.05;100.00
39823;BME280;25499;53.958;10.970;2022-10-22T07:52:15;100977.22;;;13.06;100.00
39823;BME280;25499;53.958;10.970;2022-10-22T07:54:40;100981.59;;;13.05;100.00
39823;BME280;25499;53.958;10.970;2022-10-22T07:57:06;100985.06;;;13.04;100.00
39823;BME280;25499;53.958;10.970;2022-10-22T07:59:31;100990.28;;;13.04;100.00
39823;BME280;25499;53.958;10.970;2022-10-22T08:01:56;100998.97;;;13.06;100.00
39823;BME280;25499;53.958;10.970;2022-10-22T08:04:21;101000.69;;;13.12;100.00
39823;BME280;25499;53.958;10.970;2022-10-22T08:06:47;101009.53;;;13.00;100.00
39823;BME280;25499;53.958;10.970;2022-10-22T08:09:12;101008.69;;;12.95;100.00
39823;BME280;25499;53.958;10.970;2022-10-22T08:11:37;101006.81;;;13.10;100.00
39823;BME280;25499;53.958;10.970;2022-10-22T08:14:03;101010.38;;;13.02;100.00
39823;BME280;25499;53.958;10.970;2022-10-22T08:16:28;101013.03;;;12.96;100.00
39823;BME280;25499;53.958;10.970;2022-10-22T08:18:54;101009.53;;;12.97;100.00
39823;BME280;25499;53.958;10.970;2022-10-22T08:21:19;101019.97;;;13.00;100.00
39823;BME280;25499;53.958;10.970;2022-10-22T08:23:45;101024.38;;;12.97;100.00
39823;BME280;25499;53.958;10.970;2022-10-22T08:26:10;101020.84;;;12.98;100.00
39823;BME280;25499;53.958;10.970;2022-10-22T08:28:36;101024.31;;;13.01;100.00
39823;BME280;25499;53.958;10.970;2022-10-22T08:31:07;101028.56;;;13.12;100.00
39823;BME280;25499;53.958;10.970;2022-10-22T08:33:33;101027.75;;;13.05;100.00
39823;BME280;25499;53.958;10.970;2022-10-22T08:35:58;101036.47;;;13.05;100.00
39823;BME280;25499;53.958;10.970;2022-10-22T08:38:24;101034.75;;;13.01;100.00
39823;BME280;25499;53.958;10.970;2022-10-22T08:41:02;101043.44;;;13.05;100.00
39823;BME280;25499;53.958;10.970;2022-10-22T08:48:55;101041.69;;;13.07;100.00
39823;BME280;25499;53.958;10.970;2022-10-22T08:51:24;101039.84;;;13.18;100.00
39823;BME280;25499;53.958;10.970;2022-10-22T08:59:45;101040.66;;;13.22;100.00
39823;BME280;25499;53.958;10.970;2022-10-22T09:02:20;101045.91;;;13.22;100.00
39823;BME280;25499;53.958;10.970;2022-10-22T09:05:00;101047.66;;;13.23;100.00
39823;BME280;25499;53.958;10.970;2022-10-22T09:07:27;101052.75;;;13.38;100.00
39823;BME280;25499;53.958;10.970;2022-10-22T09:09:54;101050.13;;;13.40;100.00
39823;BME280;25499;53.958;10.970;2022-10-22T09:12:23;101050.13;;;13.41;100.00
39823;BME280;25499;53.958;10.970;2022-10-22T09:14:49;101050.06;;;13.48;100.00
39823;BME280;25499;53.958;10.970;2022-10-22T09:17:23;101059.63;;;13.50;100.00
39823;BME280;25499;53.958;10.970;2022-10-22T09:20:15;101067.94;;;13.85;100.00
39823;BME280;25499;53.958;10.970;2022-10-22T09:22:50;101066.94;;;13.98;100.00
39823;BME280;25499;53.958;10.970;2022-10-22T09:25:25;101070.34;;;14.05;100.00
39823;BME280;25499;53.958;10.970;2022-10-22T09:27:51;101075.59;;;14.02;100.00
39823;BME280;25499;53.958;10.970;2022-10-22T09:30:25;101073.88;;;14.02;100.00
39823;BME280;25499;53.958;10.970;2022-10-22T09:32:54;101073.91;;;13.99;100.00
39823;BME280;25499;53.958;10.970;2022-10-22T09:35:23;101076.53;;;13.99;100.00
39823;BME280;25499;53.958;10.970;2022-10-22T09:37:51;101078.25;;;14.00;100.00
39823;BME280;25499;53.958;10.970;2022-10-22T09:40:17;101079.94;;;14.04;100.00
39823;BME280;25499;53.958;10.970;2022-10-22T09:42:46;101079.19;;;13.94;100.00
39823;BME280;25499;53.958;10.970;2022-10-22T09:45:22;101083.34;;;14.12;100.00
39823;BME280;25499;53.958;10.970;2022-10-22T09:47:48;101087.69;;;14.13;100.00
39823;BME280;25499;53.958;10.970;2022-10-22T09:52:57;101090.78;;;14.43;100.00
39823;BME280;25499;53.958;10.970;2022-10-22T09:55:24;101089.13;;;14.38;100.00
39823;BME280;25499;53.958;10.970;2022-10-22T09:57:54;101096.19;;;14.32;100.00
39823;BME280;25499;53.958;10.970;2022-10-22T10:00:21;101102.94;;;14.49;100.00
39823;BME280;25499;53.958;10.970;2022-10-22T10:02:53;101100.50;;;14.35;100.00
39823;BME280;25499;53.958;10.970;2022-10-22T10:05:23;101103.97;;;14.37;100.00
39823;BME280;25499;53.958;10.970;2022-10-22T10:07:49;101102.19;;;14.39;100.00
39823;BME280;25499;53.958;10.970;2022-10-22T10:18:24;101110.78;;;14.50;100.00
39823;BME280;25499;53.958;10.970;2022-10-22T10:21:14;101119.44;;;14.59;100.00
39823;BME280;25499;53.958;10.970;2022-10-22T10:27:06;101122.63;;;14.79;100.00
39823;BME280;25499;53.958;10.970;2022-10-22T10:35:08;101130.06;;;16.92;100.00
39823;BME280;25499;53.958;10.970;2022-10-22T10:43:14;101072.00;;;21.86;73.10
39823;BME280;25499;53.958;10.970;2022-10-22T10:48:19;101089.50;;;21.29;73.51
39823;BME280;25499;53.958;10.970;2022-10-22T10:51:28;101116.66;;;19.71;78.86
39823;BME280;25499;53.958;10.970;2022-10-22T10:56:56;101120.31;;;20.41;79.70
39823;BME280;25499;53.958;10.970;2022-10-22T10:59:54;101107.13;;;21.91;74.28
39823;BME280;25499;53.958;10.970;2022-10-22T11:05:27;101086.31;;;23.66;66.47
39823;BME280;25499;53.958;10.970;2022-10-22T11:08:14;101078.63;;;25.21;62.06
39823;BME280;25499;53.958;10.970;2022-10-22T11:10:47;101082.81;;;25.84;58.97
39823;BME280;25499;53.958;10.970;2022-10-22T11:16:22;101099.75;;;27.09;57.05
39823;BME280;25499;53.958;10.970;2022-10-22T11:18:55;101076.94;;;27.44;53.79
39823;BME280;25499;53.958;10.970;2022-10-22T11:21:33;101072.22;;;28.36;50.98
39823;BME280;25499;53.958;10.970;2022-10-22T11:24:44;101093.66;;;28.73;50.85
39823;BME280;25499;53.958;10.970;2022-10-22T11:30:07;101090.44;;;28.31;52.43
39823;BME280;25499;53.958;10.970;2022-10-22T11:32:37;101088.31;;;29.44;49.00
39823;BME280;25499;53.958;10.970;2022-10-22T11:35:04;101082.13;;;28.83;49.06
39823;BME280;25499;53.958;10.970;2022-10-22T11:37:32;101080.31;;;28.84;49.44
39823;BME280;25499;53.958;10.970;2022-10-22T11:42:38;101084.59;;;29.22;49.74
39823;BME280;25499;53.958;10.970;2022-10-22T11:47:34;101069.44;;;27.62;49.79
39823;BME280;25499;53.958;10.970;2022-10-22T12:00:50;101062.38;;;27.99;50.22
39823;BME280;25499;53.958;10.970;2022-10-22T12:08:59;101052.66;;;28.59;49.78
39823;BME280;25499;53.958;10.970;2022-10-22T12:11:38;101047.69;;;28.42;49.52
39823;BME280;25499;53.958;10.970;2022-10-22T12:14:30;101023.81;;;28.02;48.50
39823;BME280;25499;53.958;10.970;2022-10-22T12:17:16;101042.59;;;27.63;50.32
39823;BME280;25499;53.958;10.970;2022-10-22T12:19:45;101041.47;;;27.27;51.04
39823;BME280;25499;53.958;10.970;2022-10-22T12:22:16;101027.66;;;26.40;51.38
39823;BME280;25499;53.958;10.970;2022-10-22T12:24:45;101043.84;;;27.70;51.69
39823;BME280;25499;53.958;10.970;2022-10-22T12:27:37;101037.34;;;28.24;50.47
39823;BME280;25499;53.958;10.970;2022-10-22T12:30:02;101028.66;;;26.25;52.26
39823;BME280;25499;53.958;10.970;2022-10-22T12:32:40;101017.03;;;24.49;56.26
39823;BME280;25499;53.958;10.970;2022-10-22T12:35:15;101040.03;;;23.00;60.91
39823;BME280;25499;53.958;10.970;2022-10-22T12:37:41;101045.41;;;22.45;63.52
39823;BME280;25499;53.958;10.970;2022-10-22T12:42:55;101053.84;;;20.95;68.58
39823;BME280;25499;53.958;10.970;2022-10-22T12:45:21;101063.09;;;20.84;70.77
39823;BME280;25499;53.958;10.970;2022-10-22T12:47:49;101059.44;;;20.19;73.39
39823;BME280;25499;53.958;10.970;2022-10-22T12:50:22;101060.75;;;20.31;73.75
39823;BME280;25499;53.958;10.970;2022-10-22T12:52:53;101062.72;;;20.26;74.02
39823;BME280;25499;53.958;10.970;2022-10-22T12:55:21;101062.22;;;19.67;77.14
39823;BME280;25499;53.958;10.970;2022-10-22T12:57:50;101057.44;;;19.79;76.68
39823;BME280;25499;53.958;10.970;2022-10-22T13:00:27;101059.53;;;19.44;77.95
39823;BME280;25499;53.958;10.970;2022-10-22T13:02:58;101062.38;;;19.37;77.56
39823;BME280;25499;53.958;10.970;2022-10-22T13:05:30;101053.50;;;19.15;79.15
39823;BME280;25499;53.958;10.970;2022-10-22T13:10:34;101045.25;;;19.24;79.32
39823;BME280;25499;53.958;10.970;2022-10-22T13:13:00;101047.41;;;19.13;79.83
39823;BME280;25499;53.958;10.970;2022-10-22T13:21:00;101044.06;;;19.08;80.71
39823;BME280;25499;53.958;10.970;2022-10-22T13:23:28;101050.94;;;19.12;80.73
39823;BME280;25499;53.958;10.970;2022-10-22T13:26:03;101036.97;;;18.81;81.11
39823;BME280;25499;53.958;10.970;2022-10-22T13:28:36;101046.47;;;18.87;81.74
39823;BME280;25499;53.958;10.970;2022-10-22T13:31:14;101054.56;;;18.82;82.26
39823;BME280;25499;53.958;10.970;2022-10-22T13:33:42;101053.69;;;18.54;82.45
39823;BME280;25499;53.958;10.970;2022-10-22T13:36:12;101051.78;;;18.59;83.36
39823;BME280;25499;53.958;10.970;2022-10-22T13:38:39;101049.09;;;18.60;83.47
39823;BME280;25499;53.958;10.970;2022-10-22T13:41:17;101049.13;;;18.59;83.30
39823;BME280;25499;53.958;10.970;2022-10-22T13:43:44;101052.03;;;18.50;82.74
39823;BME280;25499;53.958;10.970;2022-10-22T13:46:09;101056.13;;;18.32;84.30
39823;BME280;25499;53.958;10.970;2022-10-22T13:48:35;101046.09;;;18.43;84.73
39823;BME280;25499;53.958;10.970;2022-10-22T13:51:01;101047.63;;;18.52;83.66
39823;BME280;25499;53.958;10.970;2022-10-22T13:53:27;101054.72;;;18.48;84.19
39823;BME280;25499;53.958;10.970;2022-10-22T13:55:54;101057.13;;;18.56;84.64
39823;BME280;25499;53.958;10.970;2022-10-22T13:58:21;101051.28;;;18.46;84.99
39823;BME280;25499;53.958;10.970;2022-10-22T14:00:54;101060.22;;;18.42;84.93
39823;BME280;25499;53.958;10.970;2022-10-22T14:03:24;101053.13;;;18.44;85.06
39823;BME280;25499;53.958;10.970;2022-10-22T14:05:50;101051.97;;;18.24;84.61
39823;BME280;25499;53.958;10.970;2022-10-22T14:08:19;101050.22;;;18.23;85.08
39823;BME280;25499;53.958;10.970;2022-10-22T14:10:46;101053.97;;;18.16;85.93
39823;BME280;25499;53.958;10.970;2022-10-22T14:13:12;101053.25;;;18.11;86.44
39823;BME280;25499;53.958;10.970;2022-10-22T14:15:39;101055.50;;;18.23;86.83
39823;BME280;25499;53.958;10.970;2022-10-22T14:18:06;101054.00;;;18.15;85.65
39823;BME280;25499;53.958;10.970;2022-10-22T14:20:34;101053.31;;;18.08;85.68
39823;BME280;25499;53.958;10.970;2022-10-22T14:23:17;101043.75;;;18.04;84.88
39823;BME280;25499;53.958;10.970;2022-10-22T14:25:44;101048.00;;;18.10;85.33
39823;BME280;25499;53.958;10.970;2022-10-22T14:28:10;101052.59;;;18.03;84.86
39823;BME280;25499;53.958;10.970;2022-10-22T14:30:36;101053.72;;;17.94;83.11
39823;BME280;25499;53.958;10.970;2022-10-22T14:33:01;101054.50;;;17.98;83.38
39823;BME280;25499;53.958;10.970;2022-10-22T14:35:26;101049.72;;;17.79;84.41
39823;BME280;25499;53.958;10.970;2022-10-22T14:37:52;101053.91;;;17.88;84.25
39823;BME280;25499;53.958;10.970;2022-10-22T14:40:19;101051.44;;;17.80;84.29
39823;BME280;25499;53.958;10.970;2022-10-22T14:42:46;101055.94;;;17.77;84.50
39823;BME280;25499;53.958;10.970;2022-10-22T14:45:24;101055.44;;;17.64;84.88
39823;BME280;25499;53.958;10.970;2022-10-22T14:47:50;101059.28;;;17.50;85.58
39823;BME280;25499;53.958;10.970;2022-10-22T14:50:17;101059.81;;;17.63;85.41
39823;BME280;25499;53.958;10.970;2022-10-22T14:52:43;101065.38;;;17.52;85.77
39823;BME280;25499;53.958;10.970;2022-10-22T14:55:10;101059.66;;;17.37;86.80
39823;BME280;25499;53.958;10.970;2022-10-22T14:57:36;101066.69;;;17.36;87.04
39823;BME280;25499;53.958;10.970;2022-10-22T15:00:07;101066.09;;;17.26;87.25
39823;BME280;25499;53.958;10.970;2022-10-22T15:02:33;101072.13;;;17.30;87.59
39823;BME280;25499;53.958;10.970;2022-10-22T15:04:58;101083.78;;;17.20;88.06
39823;BME280;25499;53.958;10.970;2022-10-22T15:07:24;101070.38;;;17.29;88.12
39823;BME280;25499;53.958;10.970;2022-10-22T15:09:51;101078.28;;;17.29;88.51
39823;BME280;25499;53.958;10.970;2022-10-22T15:12:16;101089.72;;;17.28;88.67
39823;BME280;25499;53.958;10.970;2022-10-22T15:14:42;101087.34;;;17.17;89.23
39823;BME280;25499;53.958;10.970;2022-10-22T15:17:07;101080.38;;;17.16;89.05
39823;BME280;25499;53.958;10.970;2022-10-22T15:19:32;101089.22;;;17.12;89.66
39823;BME280;25499;53.958;10.970;2022-10-22T15:21:58;101089.13;;;17.17;89.88
39823;BME280;25499;53.958;10.970;2022-10-22T15:24:23;101095.38;;;17.12;90.45
39823;BME280;25499;53.958;10.970;2022-10-22T15:26:48;101091.19;;;17.04;90.02
39823;BME280;25499;53.958;10.970;2022-10-22T15:29:16;101095.59;;;17.03;90.77
39823;BME280;25499;53.958;10.970;2022-10-22T15:31:47;101094.88;;;16.96;90.84
39823;BME280;25499;53.958;10.970;2022-10-22T15:34:18;101091.56;;;16.88;91.05
39823;BME280;25499;53.958;10.970;2022-10-22T15:36:44;101092.22;;;16.98;91.51
39823;BME280;25499;53.958;10.970;2022-10-22T15:39:09;101094.97;;;16.92;91.31
39823;BME280;25499;53.958;10.970;2022-10-22T15:41:35;101099.47;;;16.87;91.89
39823;BME280;25499;53.958;10.970;2022-10-22T15:44:01;101098.66;;;16.85;91.93
39823;BME280;25499;53.958;10.970;2022-10-22T15:46:26;101102.56;;;16.67;92.83
39823;BME280;25499;53.958;10.970;2022-10-22T15:48:53;101094.41;;;16.77;92.84
39823;BME280;25499;53.958;10.970;2022-10-22T15:51:19;101107.63;;;16.74;92.64
39823;BME280;25499;53.958;10.970;2022-10-22T15:53:50;101100.56;;;16.76;92.24
39823;BME280;25499;53.958;10.970;2022-10-22T15:56:16;101111.25;;;16.70;92.73
39823;BME280;25499;53.958;10.970;2022-10-22T15:58:42;101115.53;;;16.74;92.77
39823;BME280;25499;53.958;10.970;2022-10-22T16:01:09;101114.94;;;16.62;92.79
39823;BME280;25499;53.958;10.970;2022-10-22T16:03:35;101115.16;;;16.51;93.34
39823;BME280;25499;53.958;10.970;2022-10-22T16:06:01;101120.91;;;16.68;93.66
39823;BME280;25499;53.958;10.970;2022-10-22T16:08:26;101114.47;;;16.42;93.90
39823;BME280;25499;53.958;10.970;2022-10-22T16:10:52;101119.81;;;16.39;94.42
39823;BME280;25499;53.958;10.970;2022-10-22T16:13:18;101122.78;;;16.22;95.11
39823;BME280;25499;53.958;10.970;2022-10-22T16:15:45;101124.19;;;16.39;94.45
39823;BME280;25499;53.958;10.970;2022-10-22T16:18:11;101127.06;;;16.27;94.56
39823;BME280;25499;53.958;10.970;2022-10-22T16:20:39;101128.97;;;16.20;94.99
39823;BME280;25499;53.958;10.970;2022-10-22T16:23:05;101137.50;;;16.31;94.73
39823;BME280;25499;53.958;10.970;2022-10-22T16:25:39;101144.53;;;16.29;94.43
39823;BME280;25499;53.958;10.970;2022-10-22T16:28:05;101127.09;;;16.25;94.51
39823;BME280;25499;53.958;10.970;2022-10-22T16:30:35;101140.09;;;16.33;94.38
39823;BME280;25499;53.958;10.970;2022-10-22T16:33:01;101139.47;;;16.20;93.95
39823;BME280;25499;53.958;10.970;2022-10-22T16:35:27;101138.81;;;16.09;94.58
39823;BME280;25499;53.958;10.970;2022-10-22T16:37:53;101150.13;;;16.12;94.43
39823;BME280;25499;53.958;10.970;2022-10-22T16:40:18;101144.22;;;16.02;94.86
39823;BME280;25499;53.958;10.970;2022-10-22T16:42:43;101152.91;;;16.04;94.89
39823;BME280;25499;53.958;10.970;2022-10-22T16:45:09;101147.78;;;15.97;95.10
39823;BME280;25499;53.958;10.970;2022-10-22T16:47:35;101147.97;;;15.88;95.82
39823;BME280;25499;53.958;10.970;2022-10-22T16:50:00;101157.53;;;15.92;96.11
39823;BME280;25499;53.958;10.970;2022-10-22T16:52:26;101155.03;;;15.85;96.65
39823;BME280;25499;53.958;10.970;2022-10-22T16:54:51;101160.34;;;15.81;97.28
39823;BME280;25499;53.958;10.970;2022-10-22T16:57:16;101162.44;;;16.09;96.44
39823;BME280;25499;53.958;10.970;2022-10-22T16:59:42;101176.25;;;16.20;95.41
39823;BME280;25499;53.958;10.970;2022-10-22T17:02:09;101168.59;;;16.09;95.90
39823;BME280;25499;53.958;10.970;2022-10-22T17:04:34;101172.81;;;16.16;96.98
39823;BME280;25499;53.958;10.970;2022-10-22T17:07:00;101181.81;;;16.04;97.80
39823;BME280;25499;53.958;10.970;2022-10-22T17:09:25;101175.59;;;16.09;98.16
39823;BME280;25499;53.958;10.970;2022-10-22T17:11:50;101181.09;;;15.95;98.10
39823;BME280;25499;53.958;10.970;2022-10-22T17:14:16;101180.19;;;15.97;99.10
39823;BME280;25499;53.958;10.970;2022-10-22T17:16:41;101186.34;;;15.95;99.28
39823;BME280;25499;53.958;10.970;2022-10-22T17:19:11;101184.81;;;15.83;100.00
39823;BME280;25499;53.958;10.970;2022-10-22T17:21:37;101190.19;;;15.77;100.00
39823;BME280;25499;53.958;10.970;2022-10-22T17:24:02;101198.94;;;15.77;100.00
39823;BME280;25499;53.958;10.970;2022-10-22T17:26:27;101186.91;;;15.62;100.00
39823;BME280;25499;53.958;10.970;2022-10-22T17:28:54;101190.66;;;15.46;100.00
39823;BME280;25499;53.958;10.970;2022-10-22T17:33:46;101202.94;;;15.45;100.00
39823;BME280;25499;53.958;10.970;2022-10-22T17:36:12;101193.44;;;15.37;nan
39823;BME280;25499;53.958;10.970;2022-10-22T17:38:39;101205.53;;;15.47;100.00
39823;BME280;25499;53.958;10.970;2022-10-22T17:41:06;101209.16;;;15.38;100.00
39823;BME280;25499;53.958;10.970;2022-10-22T17:43:34;101212.63;;;15.40;100.00
39823;BME280;25499;53.958;10.970;2022-10-22T17:46:08;101218.13;;;15.23;100.00
39823;BME280;25499;53.958;10.970;2022-10-22T17:48:37;101212.66;;;15.37;100.00
39823;BME280;25499;53.958;10.970;2022-10-22T17:51:07;101214.72;;;15.18;100.00
39823;BME280;25499;53.958;10.970;2022-10-22T17:53:32;101213.25;;;14.99;100.00
39823;BME280;25499;53.958;10.970;2022-10-22T17:56:02;101214.16;;;14.96;100.00
39823;BME280;25499;53.958;10.970;2022-10-22T17:58:29;101214.22;;;14.91;100.00
39823;BME280;25499;53.958;10.970;2022-10-22T18:00:55;101217.59;;;15.00;100.00
39823;BME280;25499;53.958;10.970;2022-10-22T18:03:20;101215.25;;;14.80;100.00
39823;BME280;25499;53.958;10.970;2022-10-22T18:05:46;101226.03;;;15.22;100.00
39823;BME280;25499;53.958;10.970;2022-10-22T18:08:11;101219.31;;;15.04;100.00
39823;BME280;25499;53.958;10.970;2022-10-22T18:10:40;101221.75;;;15.16;100.00
39823;BME280;25499;53.958;10.970;2022-10-22T18:13:05;101230.59;;;15.10;100.00
39823;BME280;25499;53.958;10.970;2022-10-22T18:15:30;101227.81;;;15.18;100.00
39823;BME280;25499;53.958;10.970;2022-10-22T18:17:57;101232.03;;;15.28;100.00
39823;BME280;25499;53.958;10.970;2022-10-22T18:20:23;101237.28;;;15.28;100.00
39823;BME280;25499;53.958;10.970;2022-10-22T18:22:48;101225.97;;;15.25;100.00
39823;BME280;25499;53.958;10.970;2022-10-22T18:25:14;101228.75;;;15.16;100.00
39823;BME280;25499;53.958;10.970;2022-10-22T18:27:39;101225.97;;;15.26;100.00
39823;BME280;25499;53.958;10.970;2022-10-22T18:30:05;101235.63;;;15.23;100.00
39823;BME280;25499;53.958;10.970;2022-10-22T18:32:32;101233.00;;;15.23;100.00
39823;BME280;25499;53.958;10.970;2022-10-22T18:34:58;101239.94;;;15.27;100.00
39823;BME280;25499;53.958;10.970;2022-10-22T18:37:23;101239.19;;;15.17;100.00
39823;BME280;25499;53.958;10.970;2022-10-22T18:39:49;101237.44;;;15.19;100.00
39823;BME280;25499;53.958;10.970;2022-10-22T18:42:14;101237.66;;;15.04;100.00
39823;BME280;25499;53.958;10.970;2022-10-22T18:44:39;101241.09;;;15.07;100.00
39823;BME280;25499;53.958;10.970;2022-10-22T18:47:05;101241.31;;;14.94;100.00
39823;BME280;25499;53.958;10.970;2022-10-22T18:49:32;101238.69;;;14.92;100.00
39823;BME280;25499;53.958;10.970;2022-10-22T18:51:58;101240.34;;;14.99;100.00
39823;BME280;25499;53.958;10.970;2022-10-22T18:54:23;101237.69;;;15.02;100.00
39823;BME280;25499;53.958;10.970;2022-10-22T18:56:48;101236.78;;;15.03;100.00
39823;BME280;25499;53.958;10.970;2022-10-22T18:59:20;101244.63;;;15.05;100.00
39823;BME280;25499;53.958;10.970;2022-10-22T19:01:47;101245.47;;;15.07;100.00
39823;BME280;25499;53.958;10.970;2022-10-22T19:04:13;101242.75;;;15.13;100.00
39823;BME280;25499;53.958;10.970;2022-10-22T19:06:38;101249.03;;;15.03;100.00
39823;BME280;25499;53.958;10.970;2022-10-22T19:09:04;101244.75;;;14.96;100.00
39823;BME280;25499;53.958;10.970;2022-10-22T19:11:29;101250.88;;;14.95;100.00
39823;BME280;25499;53.958;10.970;2022-10-22T19:13:55;101251.66;;;15.03;100.00
39823;BME280;25499;53.958;10.970;2022-10-22T19:16:21;101255.06;;;15.09;100.00
39823;BME280;25499;53.958;10.970;2022-10-22T19:18:52;101262.09;;;15.06;100.00
39823;BME280;25499;53.958;10.970;2022-10-22T19:21:18;101256.84;;;15.07;100.00